sensor_id;sensor_type;location;lat;lon;timestamp;temperature;humidity
22035;DHT22;11181;51.002;4.356;2023-06-26T00:00:33;25.50;99.90
22035;DHT22;11181;51.002;4.356;2023-06-26T00:03:00;25.30;99.90
22035;DHT22;11181;51.002;4.356;2023-06-26T00:05:27;25.10;99.90
22035;DHT22;11181;51.002;4.356;2023-06-26T00:07:55;25.00;99.90
22035;DHT22;11181;51.002;4.356;2023-06-26T00:10:27;24.90;99.90
22035;DHT22;11181;51.002;4.356;2023-06-26T00:12:54;24.80;99.90
22035;DHT22;11181;51.002;4.356;2023-06-26T00:15:21;24.80;99.90
22035;DHT22;11181;51.002;4.356;2023-06-26T00:17:48;24.70;99.90
22035;DHT22;11181;51.002;4.356;2023-06-26T00:20:16;24.70;99.90
22035;DHT22;11181;51.002;4.356;2023-06-26T00:22:44;24.70;99.90
22035;DHT22;11181;51.002;4.356;2023-06-26T00:25:11;24.70;99.90
22035;DHT22;11181;51.002;4.356;2023-06-26T00:27:40;24.80;99.90
22035;DHT22;11181;51.002;4.356;2023-06-26T00:30:07;24.80;99.90
22035;DHT22;11181;51.002;4.356;2023-06-26T00:32:37;24.80;99.90
22035;DHT22;11181;51.002;4.356;2023-06-26T00:35:04;24.40;99.90
22035;DHT22;11181;51.002;4.356;2023-06-26T00:37:31;24.30;99.90
22035;DHT22;11181;51.002;4.356;2023-06-26T00:39:58;24.20;99.90
22035;DHT22;11181;51.002;4.356;2023-06-26T00:42:25;24.20;99.90
22035;DHT22;11181;51.002;4.356;2023-06-26T00:44:54;24.20;99.90
22035;DHT22;11181;51.002;4.356;2023-06-26T00:47:20;24.30;99.90
22035;DHT22;11181;51.002;4.356;2023-06-26T00:49:47;24.20;99.90
22035;DHT22;11181;51.002;4.356;2023-06-26T00:52:14;24.20;99.90
22035;DHT22;11181;51.002;4.356;2023-06-26T00:54:42;24.10;99.90
22035;DHT22;11181;51.002;4.356;2023-06-26T00:57:09;24.10;99.90
22035;DHT22;11181;51.002;4.356;2023-06-26T00:59:36;24.00;99.90
22035;DHT22;11181;51.002;4.356;2023-06-26T01:02:05;23.90;99.90
22035;DHT22;11181;51.002;4.356;2023-06-26T01:04:32;23.70;99.90
22035;DHT22;11181;51.002;4.356;2023-06-26T01:06:59;23.50;99.90
22035;DHT22;11181;51.002;4.356;2023-06-26T01:09:28;23.50;99.90
22035;DHT22;11181;51.002;4.356;2023-06-26T01:11:55;23.40;99.90
22035;DHT22;11181;51.002;4.356;2023-06-26T01:14:23;23.40;99.90
22035;DHT22;11181;51.002;4.356;2023-06-26T01:16:50;23.30;99.90
22035;DHT22;11181;51.002;4.356;2023-06-26T01:19:23;23.20;99.90
22035;DHT22;11181;51.002;4.356;2023-06-26T01:21:56;23.10;99.90
22035;DHT22;11181;51.002;4.356;2023-06-26T01:24:33;23.10;99.90
22035;DHT22;11181;51.002;4.356;2023-06-26T01:27:04;22.90;99.90
22035;DHT22;11181;51.002;4.356;2023-06-26T01:29:32;22.90;99.90
22035;DHT22;11181;51.002;4.356;2023-06-26T01:32:01;22.80;99.90
22035;DHT22;11181;51.002;4.356;2023-06-26T01:34:28;22.80;99.90
22035;DHT22;11181;51.002;4.356;2023-06-26T01:36:55;22.80;99.90
22035;DHT22;11181;51.002;4.356;2023-06-26T01:39:22;22.80;99.90
22035;DHT22;11181;51.002;4.356;2023-06-26T01:41:49;22.80;99.90
22035;DHT22;11181;51.002;4.356;2023-06-26T01:44:25;22.80;99.90
22035;DHT22;11181;51.002;4.356;2023-06-26T01:46:59;22.80;99.90
22035;DHT22;11181;51.002;4.356;2023-06-26T01:49:39;22.80;99.90
22035;DHT22;11181;51.002;4.356;2023-06-26T01:52:12;22.80;99.90
22035;DHT22;11181;51.002;4.356;2023-06-26T01:54:49;22.60;99.90
22035;DHT22;11181;51.002;4.356;2023-06-26T01:57:20;22.60;99.90
22035;DHT22;11181;51.002;4.356;2023-06-26T01:59:50;22.50;99.90
22035;DHT22;11181;51.002;4.356;2023-06-26T02:02:17;22.50;99.90
22035;DHT22;11181;51.002;4.356;2023-06-26T02:04:47;22.40;99.90
22035;DHT22;11181;51.002;4.356;2023-06-26T02:07:14;22.40;99.90
22035;DHT22;11181;51.002;4.356;2023-06-26T02:09:41;22.40;99.90
22035;DHT22;11181;51.002;4.356;2023-06-26T02:12:09;22.40;99.90
22035;DHT22;11181;51.002;4.356;2023-06-26T02:14:36;22.30;99.90
22035;DHT22;11181;51.002;4.356;2023-06-26T02:17:04;22.30;99.90
22035;DHT22;11181;51.002;4.356;2023-06-26T02:19:33;22.20;99.90
22035;DHT22;11181;51.002;4.356;2023-06-26T02:21:59;22.10;99.90
22035;DHT22;11181;51.002;4.356;2023-06-26T02:24:26;22.20;99.90
22035;DHT22;11181;51.002;4.356;2023-06-26T02:26:56;22.20;99.90
22035;DHT22;11181;51.002;4.356;2023-06-26T02:29:23;22.20;99.90
22035;DHT22;11181;51.002;4.356;2023-06-26T02:31:50;22.20;99.90
22035;DHT22;11181;51.002;4.356;2023-06-26T02:34:18;22.10;99.90
22035;DHT22;11181;51.002;4.356;2023-06-26T02:36:45;22.10;99.90
22035;DHT22;11181;51.002;4.356;2023-06-26T02:39:12;22.00;99.90
22035;DHT22;11181;51.002;4.356;2023-06-26T02:41:42;21.90;99.90
22035;DHT22;11181;51.002;4.356;2023-06-26T02:44:09;21.90;99.90
22035;DHT22;11181;51.002;4.356;2023-06-26T02:46:37;21.90;99.90
22035;DHT22;11181;51.002;4.356;2023-06-26T02:49:04;21.80;99.90
22035;DHT22;11181;51.002;4.356;2023-06-26T02:51:33;21.70;99.90
22035;DHT22;11181;51.002;4.356;2023-06-26T02:54:01;21.60;99.90
22035;DHT22;11181;51.002;4.356;2023-06-26T02:56:27;21.50;99.90
22035;DHT22;11181;51.002;4.356;2023-06-26T02:58:55;21.40;99.90
22035;DHT22;11181;51.002;4.356;2023-06-26T03:01:22;21.30;99.90
22035;DHT22;11181;51.002;4.356;2023-06-26T03:03:48;21.30;99.90
22035;DHT22;11181;51.002;4.356;2023-06-26T03:06:15;21.20;99.90
22035;DHT22;11181;51.002;4.356;2023-06-26T03:08:44;21.20;99.90
22035;DHT22;11181;51.002;4.356;2023-06-26T03:11:11;21.20;99.90
22035;DHT22;11181;51.002;4.356;2023-06-26T03:13:37;21.20;99.90
22035;DHT22;11181;51.002;4.356;2023-06-26T03:16:04;21.20;99.90
22035;DHT22;11181;51.002;4.356;2023-06-26T03:18:31;21.00;99.90
22035;DHT22;11181;51.002;4.356;2023-06-26T03:20:59;21.00;99.90
22035;DHT22;11181;51.002;4.356;2023-06-26T03:23:26;20.90;99.90
22035;DHT22;11181;51.002;4.356;2023-06-26T03:25:54;20.90;99.90
22035;DHT22;11181;51.002;4.356;2023-06-26T03:28:22;20.90;99.90
22035;DHT22;11181;51.002;4.356;2023-06-26T03:30:49;20.90;99.90
22035;DHT22;11181;51.002;4.356;2023-06-26T03:33:15;20.90;99.90
22035;DHT22;11181;51.002;4.356;2023-06-26T03:35:42;20.90;99.90
22035;DHT22;11181;51.002;4.356;2023-06-26T03:38:09;20.80;99.90
22035;DHT22;11181;51.002;4.356;2023-06-26T03:40:36;20.80;99.90
22035;DHT22;11181;51.002;4.356;2023-06-26T03:43:05;20.70;99.90
22035;DHT22;11181;51.002;4.356;2023-06-26T03:45:31;20.70;99.90
22035;DHT22;11181;51.002;4.356;2023-06-26T03:47:58;20.60;99.90
22035;DHT22;11181;51.002;4.356;2023-06-26T03:50:25;20.60;99.90
22035;DHT22;11181;51.002;4.356;2023-06-26T03:52:52;20.50;99.90
22035;DHT22;11181;51.002;4.356;2023-06-26T03:55:20;20.50;99.90
22035;DHT22;11181;51.002;4.356;2023-06-26T03:57:48;20.50;99.90
22035;DHT22;11181;51.002;4.356;2023-06-26T04:00:17;20.50;99.90
22035;DHT22;11181;51.002;4.356;2023-06-26T04:02:44;20.50;99.90
22035;DHT22;11181;51.002;4.356;2023-06-26T04:05:14;20.50;99.90
22035;DHT22;11181;51.002;4.356;2023-06-26T04:07:42;20.40;99.90
22035;DHT22;11181;51.002;4.356;2023-06-26T04:10:09;20.40;99.90
22035;DHT22;11181;51.002;4.356;2023-06-26T04:12:36;20.50;99.90
22035;DHT22;11181;51.002;4.356;2023-06-26T04:15:04;20.40;99.90
22035;DHT22;11181;51.002;4.356;2023-06-26T04:17:32;20.40;99.90
22035;DHT22;11181;51.002;4.356;2023-06-26T04:19:59;20.50;99.90
22035;DHT22;11181;51.002;4.356;2023-06-26T04:22:26;20.40;99.90
22035;DHT22;11181;51.002;4.356;2023-06-26T04:24:53;20.30;99.90
22035;DHT22;11181;51.002;4.356;2023-06-26T04:27:20;20.10;99.90
22035;DHT22;11181;51.002;4.356;2023-06-26T04:29:47;20.10;99.90
22035;DHT22;11181;51.002;4.356;2023-06-26T04:32:14;20.00;99.90
22035;DHT22;11181;51.002;4.356;2023-06-26T04:34:42;20.00;99.90
22035;DHT22;11181;51.002;4.356;2023-06-26T04:37:09;20.10;99.90
22035;DHT22;11181;51.002;4.356;2023-06-26T04:39:37;20.10;99.90
22035;DHT22;11181;51.002;4.356;2023-06-26T04:42:04;20.10;99.90
22035;DHT22;11181;51.002;4.356;2023-06-26T04:44:32;20.10;99.90
22035;DHT22;11181;51.002;4.356;2023-06-26T04:46:59;20.10;99.90
22035;DHT22;11181;51.002;4.356;2023-06-26T04:49:26;20.10;99.90
22035;DHT22;11181;51.002;4.356;2023-06-26T04:51:56;20.10;99.90
22035;DHT22;11181;51.002;4.356;2023-06-26T04:54:26;20.20;99.90
22035;DHT22;11181;51.002;4.356;2023-06-26T04:56:53;20.00;99.90
22035;DHT22;11181;51.002;4.356;2023-06-26T04:59:21;20.00;99.90
22035;DHT22;11181;51.002;4.356;2023-06-26T05:01:47;19.90;99.90
22035;DHT22;11181;51.002;4.356;2023-06-26T05:04:15;19.90;99.90
22035;DHT22;11181;51.002;4.356;2023-06-26T05:06:42;19.90;99.90
22035;DHT22;11181;51.002;4.356;2023-06-26T05:09:10;19.90;99.90
22035;DHT22;11181;51.002;4.356;2023-06-26T05:11:37;19.90;99.90
22035;DHT22;11181;51.002;4.356;2023-06-26T05:14:04;20.00;99.90
22035;DHT22;11181;51.002;4.356;2023-06-26T05:16:33;20.00;99.90
22035;DHT22;11181;51.002;4.356;2023-06-26T05:19:00;20.00;99.90
22035;DHT22;11181;51.002;4.356;2023-06-26T05:21:28;20.10;99.90
22035;DHT22;11181;51.002;4.356;2023-06-26T05:23:56;20.10;99.90
22035;DHT22;11181;51.002;4.356;2023-06-26T05:26:26;20.10;99.90
22035;DHT22;11181;51.002;4.356;2023-06-26T05:28:53;20.30;99.90
22035;DHT22;11181;51.002;4.356;2023-06-26T05:31:21;20.40;99.90
22035;DHT22;11181;51.002;4.356;2023-06-26T05:33:49;20.30;99.90
22035;DHT22;11181;51.002;4.356;2023-06-26T05:36:18;20.30;99.90
22035;DHT22;11181;51.002;4.356;2023-06-26T05:38:45;20.30;99.90
22035;DHT22;11181;51.002;4.356;2023-06-26T05:41:13;20.30;99.90
22035;DHT22;11181;51.002;4.356;2023-06-26T05:43:41;20.20;99.90
22035;DHT22;11181;51.002;4.356;2023-06-26T05:46:08;20.10;99.90
22035;DHT22;11181;51.002;4.356;2023-06-26T05:48:35;20.20;99.90
22035;DHT22;11181;51.002;4.356;2023-06-26T05:51:02;20.20;99.90
22035;DHT22;11181;51.002;4.356;2023-06-26T05:53:30;20.30;99.90
22035;DHT22;11181;51.002;4.356;2023-06-26T05:55:57;20.30;99.90
22035;DHT22;11181;51.002;4.356;2023-06-26T05:58:26;20.30;99.90
22035;DHT22;11181;51.002;4.356;2023-06-26T06:00:55;20.40;99.90
22035;DHT22;11181;51.002;4.356;2023-06-26T06:03:23;20.50;99.90
22035;DHT22;11181;51.002;4.356;2023-06-26T06:05:50;20.60;99.90
22035;DHT22;11181;51.002;4.356;2023-06-26T06:08:17;20.80;99.90
22035;DHT22;11181;51.002;4.356;2023-06-26T06:10:44;21.00;99.90
22035;DHT22;11181;51.002;4.356;2023-06-26T06:13:11;21.20;99.90
22035;DHT22;11181;51.002;4.356;2023-06-26T06:15:38;21.30;99.90
22035;DHT22;11181;51.002;4.356;2023-06-26T06:18:06;21.30;99.90
22035;DHT22;11181;51.002;4.356;2023-06-26T06:20:33;21.20;99.90
22035;DHT22;11181;51.002;4.356;2023-06-26T06:23:00;21.10;99.90
22035;DHT22;11181;51.002;4.356;2023-06-26T06:25:27;21.00;99.90
22035;DHT22;11181;51.002;4.356;2023-06-26T06:27:54;21.00;99.90
22035;DHT22;11181;51.002;4.356;2023-06-26T06:30:21;21.00;99.90
22035;DHT22;11181;51.002;4.356;2023-06-26T06:32:48;21.10;99.90
22035;DHT22;11181;51.002;4.356;2023-06-26T06:35:18;21.10;99.90
22035;DHT22;11181;51.002;4.356;2023-06-26T06:37:45;21.30;99.90
22035;DHT22;11181;51.002;4.356;2023-06-26T06:40:12;21.50;99.90
22035;DHT22;11181;51.002;4.356;2023-06-26T06:42:40;21.70;99.90
22035;DHT22;11181;51.002;4.356;2023-06-26T06:45:07;21.90;99.90
22035;DHT22;11181;51.002;4.356;2023-06-26T06:47:34;21.90;99.90
22035;DHT22;11181;51.002;4.356;2023-06-26T06:50:02;21.80;99.90
22035;DHT22;11181;51.002;4.356;2023-06-26T06:52:36;21.90;99.90
22035;DHT22;11181;51.002;4.356;2023-06-26T06:55:03;21.90;99.90
22035;DHT22;11181;51.002;4.356;2023-06-26T06:57:34;22.00;99.90
22035;DHT22;11181;51.002;4.356;2023-06-26T07:00:03;22.20;99.90
22035;DHT22;11181;51.002;4.356;2023-06-26T07:02:31;22.50;99.90
22035;DHT22;11181;51.002;4.356;2023-06-26T07:04:57;22.60;99.90
22035;DHT22;11181;51.002;4.356;2023-06-26T07:07:28;22.60;99.90
22035;DHT22;11181;51.002;4.356;2023-06-26T07:09:57;22.20;99.90
22035;DHT22;11181;51.002;4.356;2023-06-26T07:12:24;22.20;99.90
22035;DHT22;11181;51.002;4.356;2023-06-26T07:14:51;22.30;99.90
22035;DHT22;11181;51.002;4.356;2023-06-26T07:17:19;22.30;99.90
22035;DHT22;11181;51.002;4.356;2023-06-26T07:19:46;22.30;99.90
22035;DHT22;11181;51.002;4.356;2023-06-26T07:22:13;22.40;99.90
22035;DHT22;11181;51.002;4.356;2023-06-26T07:24:40;22.80;99.90
22035;DHT22;11181;51.002;4.356;2023-06-26T07:27:08;23.00;99.90
22035;DHT22;11181;51.002;4.356;2023-06-26T07:29:35;23.10;99.90
22035;DHT22;11181;51.002;4.356;2023-06-26T07:32:02;23.20;99.90
22035;DHT22;11181;51.002;4.356;2023-06-26T07:34:29;23.40;99.90
22035;DHT22;11181;51.002;4.356;2023-06-26T07:36:56;23.60;99.90
22035;DHT22;11181;51.002;4.356;2023-06-26T07:39:23;23.80;99.90
22035;DHT22;11181;51.002;4.356;2023-06-26T07:41:49;24.00;99.90
22035;DHT22;11181;51.002;4.356;2023-06-26T07:44:18;24.10;99.90
22035;DHT22;11181;51.002;4.356;2023-06-26T07:46:45;24.00;99.90
22035;DHT22;11181;51.002;4.356;2023-06-26T07:49:11;24.00;99.90
22035;DHT22;11181;51.002;4.356;2023-06-26T07:51:38;24.00;99.90
22035;DHT22;11181;51.002;4.356;2023-06-26T07:54:05;23.90;99.90
22035;DHT22;11181;51.002;4.356;2023-06-26T07:56:51;24.00;99.90
22035;DHT22;11181;51.002;4.356;2023-06-26T07:59:20;24.00;99.90
22035;DHT22;11181;51.002;4.356;2023-06-26T08:01:48;24.20;99.90
22035;DHT22;11181;51.002;4.356;2023-06-26T08:04:15;24.40;99.90
22035;DHT22;11181;51.002;4.356;2023-06-26T08:06:45;24.60;99.90
22035;DHT22;11181;51.002;4.356;2023-06-26T08:09:12;24.60;99.90
22035;DHT22;11181;51.002;4.356;2023-06-26T08:11:39;24.60;99.90
22035;DHT22;11181;51.002;4.356;2023-06-26T08:14:06;24.40;99.90
22035;DHT22;11181;51.002;4.356;2023-06-26T08:16:34;24.30;99.90
22035;DHT22;11181;51.002;4.356;2023-06-26T08:19:01;24.50;99.90
22035;DHT22;11181;51.002;4.356;2023-06-26T08:21:28;24.90;99.90
22035;DHT22;11181;51.002;4.356;2023-06-26T08:23:55;25.10;99.90
22035;DHT22;11181;51.002;4.356;2023-06-26T08:26:22;25.10;99.90
22035;DHT22;11181;51.002;4.356;2023-06-26T08:28:49;25.00;99.90
22035;DHT22;11181;51.002;4.356;2023-06-26T08:31:16;24.80;99.90
22035;DHT22;11181;51.002;4.356;2023-06-26T08:33:44;24.60;99.90
22035;DHT22;11181;51.002;4.356;2023-06-26T08:36:11;24.50;99.90
22035;DHT22;11181;51.002;4.356;2023-06-26T08:38:38;24.50;99.90
22035;DHT22;11181;51.002;4.356;2023-06-26T08:41:06;24.70;99.90
22035;DHT22;11181;51.002;4.356;2023-06-26T08:43:33;24.90;99.90
22035;DHT22;11181;51.002;4.356;2023-06-26T08:46:00;25.00;99.90
22035;DHT22;11181;51.002;4.356;2023-06-26T08:48:29;25.10;99.90
22035;DHT22;11181;51.002;4.356;2023-06-26T08:51:01;25.10;99.90
22035;DHT22;11181;51.002;4.356;2023-06-26T08:53:43;25.00;99.90
22035;DHT22;11181;51.002;4.356;2023-06-26T08:56:15;24.90;99.90
22035;DHT22;11181;51.002;4.356;2023-06-26T08:58:44;25.10;99.90
22035;DHT22;11181;51.002;4.356;2023-06-26T09:01:12;25.10;99.90
22035;DHT22;11181;51.002;4.356;2023-06-26T09:03:39;25.20;99.90
22035;DHT22;11181;51.002;4.356;2023-06-26T09:06:08;25.40;99.90
22035;DHT22;11181;51.002;4.356;2023-06-26T09:08:37;25.30;99.90
22035;DHT22;11181;51.002;4.356;2023-06-26T09:11:04;25.10;99.90
22035;DHT22;11181;51.002;4.356;2023-06-26T09:13:31;24.90;99.90
22035;DHT22;11181;51.002;4.356;2023-06-26T09:15:58;24.70;99.90
22035;DHT22;11181;51.002;4.356;2023-06-26T09:18:25;24.80;99.90
22035;DHT22;11181;51.002;4.356;2023-06-26T09:20:52;25.20;99.90
22035;DHT22;11181;51.002;4.356;2023-06-26T09:23:21;25.50;99.90
22035;DHT22;11181;51.002;4.356;2023-06-26T09:25:48;25.50;99.90
22035;DHT22;11181;51.002;4.356;2023-06-26T09:28:17;25.70;99.90
22035;DHT22;11181;51.002;4.356;2023-06-26T09:30:47;25.90;99.90
22035;DHT22;11181;51.002;4.356;2023-06-26T09:33:17;25.90;99.90
22035;DHT22;11181;51.002;4.356;2023-06-26T09:35:45;26.00;99.90
22035;DHT22;11181;51.002;4.356;2023-06-26T09:38:13;26.00;99.90
22035;DHT22;11181;51.002;4.356;2023-06-26T09:40:42;26.30;99.90
22035;DHT22;11181;51.002;4.356;2023-06-26T09:43:13;26.50;99.90
22035;DHT22;11181;51.002;4.356;2023-06-26T09:45:40;26.80;99.90
22035;DHT22;11181;51.002;4.356;2023-06-26T09:48:07;26.90;99.90
22035;DHT22;11181;51.002;4.356;2023-06-26T09:50:35;26.20;99.90
22035;DHT22;11181;51.002;4.356;2023-06-26T09:53:07;26.30;99.90
22035;DHT22;11181;51.002;4.356;2023-06-26T09:55:35;26.50;99.90
22035;DHT22;11181;51.002;4.356;2023-06-26T09:58:08;26.50;99.90
22035;DHT22;11181;51.002;4.356;2023-06-26T10:00:40;26.60;99.90
22035;DHT22;11181;51.002;4.356;2023-06-26T10:03:07;26.50;99.90
22035;DHT22;11181;51.002;4.356;2023-06-26T10:05:34;26.30;99.90
22035;DHT22;11181;51.002;4.356;2023-06-26T10:08:01;26.50;99.90
22035;DHT22;11181;51.002;4.356;2023-06-26T10:10:29;26.50;99.90
22035;DHT22;11181;51.002;4.356;2023-06-26T10:13:00;26.80;99.90
22035;DHT22;11181;51.002;4.356;2023-06-26T10:15:32;26.50;99.90
22035;DHT22;11181;51.002;4.356;2023-06-26T10:18:01;26.30;99.90
22035;DHT22;11181;51.002;4.356;2023-06-26T10:20:28;26.20;99.90
22035;DHT22;11181;51.002;4.356;2023-06-26T10:22:58;26.10;99.90
22035;DHT22;11181;51.002;4.356;2023-06-26T10:25:27;26.20;99.90
22035;DHT22;11181;51.002;4.356;2023-06-26T10:27:58;26.70;99.90
22035;DHT22;11181;51.002;4.356;2023-06-26T10:30:28;26.90;99.90
22035;DHT22;11181;51.002;4.356;2023-06-26T10:32:57;26.90;99.90
22035;DHT22;11181;51.002;4.356;2023-06-26T10:35:24;27.10;99.90
22035;DHT22;11181;51.002;4.356;2023-06-26T10:38:00;27.30;99.90
22035;DHT22;11181;51.002;4.356;2023-06-26T10:40:28;27.10;99.90
22035;DHT22;11181;51.002;4.356;2023-06-26T10:43:06;27.00;99.90
22035;DHT22;11181;51.002;4.356;2023-06-26T10:45:34;26.90;99.90
22035;DHT22;11181;51.002;4.356;2023-06-26T10:48:03;26.80;99.90
22035;DHT22;11181;51.002;4.356;2023-06-26T10:50:32;26.50;99.90
22035;DHT22;11181;51.002;4.356;2023-06-26T10:53:11;26.20;99.90
22035;DHT22;11181;51.002;4.356;2023-06-26T10:55:43;26.10;99.90
22035;DHT22;11181;51.002;4.356;2023-06-26T10:58:27;26.10;99.90
22035;DHT22;11181;51.002;4.356;2023-06-26T11:01:19;26.40;99.90
22035;DHT22;11181;51.002;4.356;2023-06-26T11:03:49;26.30;99.90
22035;DHT22;11181;51.002;4.356;2023-06-26T11:06:28;26.70;99.90
22035;DHT22;11181;51.002;4.356;2023-06-26T11:09:01;27.00;99.90
22035;DHT22;11181;51.002;4.356;2023-06-26T11:12:02;27.20;99.90
22035;DHT22;11181;51.002;4.356;2023-06-26T11:14:31;27.10;99.90
22035;DHT22;11181;51.002;4.356;2023-06-26T11:17:01;27.10;98.90
22035;DHT22;11181;51.002;4.356;2023-06-26T11:19:29;27.10;99.10
22035;DHT22;11181;51.002;4.356;2023-06-26T11:22:03;27.30;98.70
22035;DHT22;11181;51.002;4.356;2023-06-26T11:24:30;27.50;98.30
22035;DHT22;11181;51.002;4.356;2023-06-26T11:27:04;27.60;97.20
22035;DHT22;11181;51.002;4.356;2023-06-26T11:29:32;27.70;97.20
22035;DHT22;11181;51.002;4.356;2023-06-26T11:32:00;27.60;97.50
22035;DHT22;11181;51.002;4.356;2023-06-26T11:34:31;27.50;97.90
22035;DHT22;11181;51.002;4.356;2023-06-26T11:36:58;27.40;96.40
22035;DHT22;11181;51.002;4.356;2023-06-26T11:39:27;27.70;97.30
22035;DHT22;11181;51.002;4.356;2023-06-26T11:41:53;27.80;96.90
22035;DHT22;11181;51.002;4.356;2023-06-26T11:44:21;27.70;96.80
22035;DHT22;11181;51.002;4.356;2023-06-26T11:46:51;27.50;96.60
22035;DHT22;11181;51.002;4.356;2023-06-26T11:49:21;27.50;95.20
22035;DHT22;11181;51.002;4.356;2023-06-26T11:51:50;27.70;96.30
22035;DHT22;11181;51.002;4.356;2023-06-26T11:54:23;27.80;96.20
22035;DHT22;11181;51.002;4.356;2023-06-26T11:56:55;28.10;96.00
22035;DHT22;11181;51.002;4.356;2023-06-26T11:59:23;28.60;96.90
22035;DHT22;11181;51.002;4.356;2023-06-26T12:01:51;28.80;95.20
22035;DHT22;11181;51.002;4.356;2023-06-26T12:04:20;28.60;94.40
22035;DHT22;11181;51.002;4.356;2023-06-26T12:06:51;28.90;95.70
22035;DHT22;11181;51.002;4.356;2023-06-26T12:09:23;28.90;92.50
22035;DHT22;11181;51.002;4.356;2023-06-26T12:11:53;28.90;93.40
22035;DHT22;11181;51.002;4.356;2023-06-26T12:14:20;28.60;94.50
22035;DHT22;11181;51.002;4.356;2023-06-26T12:16:48;28.80;95.00
22035;DHT22;11181;51.002;4.356;2023-06-26T12:19:15;29.20;95.40
22035;DHT22;11181;51.002;4.356;2023-06-26T12:21:47;28.90;92.40
22035;DHT22;11181;51.002;4.356;2023-06-26T12:24:19;28.40;92.50
22035;DHT22;11181;51.002;4.356;2023-06-26T12:26:50;27.70;93.40
22035;DHT22;11181;51.002;4.356;2023-06-26T12:29:20;27.50;94.00
22035;DHT22;11181;51.002;4.356;2023-06-26T12:31:50;27.80;93.60
22035;DHT22;11181;51.002;4.356;2023-06-26T12:34:18;27.90;92.40
22035;DHT22;11181;51.002;4.356;2023-06-26T12:36:47;27.80;93.40
22035;DHT22;11181;51.002;4.356;2023-06-26T12:39:16;27.50;93.80
22035;DHT22;11181;51.002;4.356;2023-06-26T12:41:49;27.20;93.60
22035;DHT22;11181;51.002;4.356;2023-06-26T12:44:23;27.20;93.30
22035;DHT22;11181;51.002;4.356;2023-06-26T12:46:54;27.40;93.40
22035;DHT22;11181;51.002;4.356;2023-06-26T12:49:29;27.80;94.10
22035;DHT22;11181;51.002;4.356;2023-06-26T12:51:57;28.10;93.30
22035;DHT22;11181;51.002;4.356;2023-06-26T12:54:24;28.10;92.80
22035;DHT22;11181;51.002;4.356;2023-06-26T12:56:52;28.10;93.20
22035;DHT22;11181;51.002;4.356;2023-06-26T12:59:19;27.90;93.80
22035;DHT22;11181;51.002;4.356;2023-06-26T13:01:46;28.30;92.30
22035;DHT22;11181;51.002;4.356;2023-06-26T13:04:13;28.50;94.10
22035;DHT22;11181;51.002;4.356;2023-06-26T13:06:40;28.70;92.60
22035;DHT22;11181;51.002;4.356;2023-06-26T13:09:07;29.00;92.20
22035;DHT22;11181;51.002;4.356;2023-06-26T13:11:35;28.70;91.40
22035;DHT22;11181;51.002;4.356;2023-06-26T13:14:04;28.50;91.70
22035;DHT22;11181;51.002;4.356;2023-06-26T13:16:31;27.80;91.80
22035;DHT22;11181;51.002;4.356;2023-06-26T13:18:58;27.80;93.00
22035;DHT22;11181;51.002;4.356;2023-06-26T13:21:25;27.90;92.70
22035;DHT22;11181;51.002;4.356;2023-06-26T13:23:52;27.60;92.90
22035;DHT22;11181;51.002;4.356;2023-06-26T13:26:20;27.70;92.00
22035;DHT22;11181;51.002;4.356;2023-06-26T13:28:47;27.70;91.60
22035;DHT22;11181;51.002;4.356;2023-06-26T13:31:15;27.60;92.00
22035;DHT22;11181;51.002;4.356;2023-06-26T13:33:42;27.50;91.90
22035;DHT22;11181;51.002;4.356;2023-06-26T13:36:10;27.60;92.90
22035;DHT22;11181;51.002;4.356;2023-06-26T13:38:37;27.50;93.00
22035;DHT22;11181;51.002;4.356;2023-06-26T13:41:04;27.50;92.50
22035;DHT22;11181;51.002;4.356;2023-06-26T13:43:31;27.50;92.60
22035;DHT22;11181;51.002;4.356;2023-06-26T13:45:58;27.60;92.40
22035;DHT22;11181;51.002;4.356;2023-06-26T13:48:26;27.80;92.50
22035;DHT22;11181;51.002;4.356;2023-06-26T13:50:53;27.80;92.90
22035;DHT22;11181;51.002;4.356;2023-06-26T13:53:20;27.90;92.70
22035;DHT22;11181;51.002;4.356;2023-06-26T13:55:47;28.00;91.80
22035;DHT22;11181;51.002;4.356;2023-06-26T13:58:14;27.60;91.80
22035;DHT22;11181;51.002;4.356;2023-06-26T14:00:41;27.10;92.50
22035;DHT22;11181;51.002;4.356;2023-06-26T14:03:10;27.40;92.60
22035;DHT22;11181;51.002;4.356;2023-06-26T14:05:38;27.60;92.50
22035;DHT22;11181;51.002;4.356;2023-06-26T14:08:07;27.70;92.00
22035;DHT22;11181;51.002;4.356;2023-06-26T14:10:36;27.90;92.60
22035;DHT22;11181;51.002;4.356;2023-06-26T14:13:03;27.80;92.00
22035;DHT22;11181;51.002;4.356;2023-06-26T14:15:30;27.70;92.00
22035;DHT22;11181;51.002;4.356;2023-06-26T14:17:57;27.60;92.40
22035;DHT22;11181;51.002;4.356;2023-06-26T14:20:24;27.40;91.90
22035;DHT22;11181;51.002;4.356;2023-06-26T14:22:54;27.60;91.80
22035;DHT22;11181;51.002;4.356;2023-06-26T14:25:21;27.70;92.50
22035;DHT22;11181;51.002;4.356;2023-06-26T14:27:48;27.70;92.50
22035;DHT22;11181;51.002;4.356;2023-06-26T14:30:15;27.80;93.00
22035;DHT22;11181;51.002;4.356;2023-06-26T14:32:41;27.70;92.00
22035;DHT22;11181;51.002;4.356;2023-06-26T14:35:08;27.60;92.00
22035;DHT22;11181;51.002;4.356;2023-06-26T14:37:36;27.60;92.00
22035;DHT22;11181;51.002;4.356;2023-06-26T14:40:07;27.50;92.70
22035;DHT22;11181;51.002;4.356;2023-06-26T14:42:34;26.90;92.80
22035;DHT22;11181;51.002;4.356;2023-06-26T14:45:01;26.60;93.60
22035;DHT22;11181;51.002;4.356;2023-06-26T14:47:28;26.40;92.50
22035;DHT22;11181;51.002;4.356;2023-06-26T14:49:55;26.30;92.10
22035;DHT22;11181;51.002;4.356;2023-06-26T14:52:22;26.20;92.80
22035;DHT22;11181;51.002;4.356;2023-06-26T14:54:49;26.10;92.60
22035;DHT22;11181;51.002;4.356;2023-06-26T14:57:17;26.10;93.60
22035;DHT22;11181;51.002;4.356;2023-06-26T14:59:44;26.00;93.10
22035;DHT22;11181;51.002;4.356;2023-06-26T15:02:11;26.20;93.10
22035;DHT22;11181;51.002;4.356;2023-06-26T15:04:38;26.30;92.60
22035;DHT22;11181;51.002;4.356;2023-06-26T15:07:05;26.40;93.40
22035;DHT22;11181;51.002;4.356;2023-06-26T15:09:32;26.20;92.80
22035;DHT22;11181;51.002;4.356;2023-06-26T15:12:00;26.50;93.20
22035;DHT22;11181;51.002;4.356;2023-06-26T15:14:28;26.50;93.70
22035;DHT22;11181;51.002;4.356;2023-06-26T15:16:55;26.60;93.50
22035;DHT22;11181;51.002;4.356;2023-06-26T15:19:22;26.90;93.40
22035;DHT22;11181;51.002;4.356;2023-06-26T15:21:48;26.90;93.50
22035;DHT22;11181;51.002;4.356;2023-06-26T15:24:15;26.70;92.60
22035;DHT22;11181;51.002;4.356;2023-06-26T15:26:43;26.60;93.50
22035;DHT22;11181;51.002;4.356;2023-06-26T15:29:10;26.60;93.40
22035;DHT22;11181;51.002;4.356;2023-06-26T15:31:41;26.60;93.80
22035;DHT22;11181;51.002;4.356;2023-06-26T15:34:08;26.80;94.10
22035;DHT22;11181;51.002;4.356;2023-06-26T15:36:35;26.80;94.00